Morro Redondo, Brazil
Current Conditions -  °F | °C
As of 9:00 PM on Tuesday 25 Nov 2014 (Local Time) from SBPK Reporting Station
Overcast Overcast  
Wind Chill: 72°   Ceiling: 2000
Heat Index: 72°   Visibility: 6mi
Dew Point: 66°   Wind: 9mph
Humidity: 83%   Direction: 130°SE
Pressure: 29.85"   Gusts: NA
Location:  31.59°S, 52.63°W
Report Text: SBPK 252300Z 13008KT 9999 OVC020 22/19 Q1011
Loading
Personal Weather Stations






























Interactive Weather Map New forecast layout! Learn more

10-Day Weather Forecast

Advertisements
Track Severe Weather on mobile